Portada
METAR-TAF:

METAR-TAF

Aeroports :

Fond Du Lac County Airport

Fond du Lac, Wisconsin, Estats Units d'Amèrica

latitud: 43-46-12N, longitud: 088-29-11W, altitud: 246 m

Observació

L'informe es va fer fa 1 hora i 2 minuts, a les 00:53 UTC
Vent 9 kt del Sud/Sud-Est
Temperatura 27°C
Humitat 58%
Pressió 1012 hPa
Visibilitat: 16.1 km
Cel ennuvolat a una alçada de 6000 ft

METAR: KFLD 280053Z AUTO 15009KT 10SM BKN060 27/18 A2989 RMK AO2 LTG DSNT S AND SW SLP115 T02720183

Hora: 20:55 (01:55 UTC)


TAF: manca

Observacions i pronòstics meteorològics de més de 4000 aeroports (METAR i TAF).

Les estacions disponibles són els punts grocs i vermells al mapa.

Posi el ratolí al punt desitjat per veure el nom de l'estació.

Feu clic per veure les observacions i els pronòstics meteorològics.

Per canviar el mapa: feu clic els botons verds amb una creu de color negre per apropar; al botó verd amb un guió per allunyar la imatge; o en les fletxes verdes per a mapes adjacents.


METAR-TAF: